Châteauroux-Déols "Marcel Dassault" Airport

Airport
ICAO code: 
LFLX
IATA Code: 
CHR
Summary
ICAO Region: 
EUR
Territory: 
Location: 
, Centre
Serving: 
Chateauroux
Elevation: 
529 ft
Coordinates: 
Aerial View: 
46° 51' 43.898" N, 1° 43' 50.401" E
Metar
Observation
LFLX 020400Z AUTO 29006KT 9999 FEW006/// BKN045/// BKN054/// ///TCU 04/03 Q1006 TEMPO 3000 -SHRA BKN006 BKN030
Station
Chateauroux
Date/Time
2021-12-02 04:00:00
Wind direction
290°
Wind speed
06 kts
Lowest cloud amount
few clouds
Temperature
4°C
Dew point
3°C
Humidity
93%
QNH
1006 hPa
Weather condition
n/a

Runways

Designator Length Width Surface Rops
4/22 3500 45 CON Yes/Yes
Airport map: 
Aerial View: 

SKYbrary Partners:

Safety knowledge contributed by: